Time;durP1;ratioP1;P1;durP2;ratioP2;P2;SDS_P1;SDS_P2;PMS_P1;PMS_P2;Temp;Humidity;BMP_temperature;BMP_pressure;BME280_temperature;BME280_humidity;BME280_pressure;Samples;Min_cycle;Max_cycle;Signal;HPM_P1;HPM_P2
2022/10/21 00:00:52;;;;;;;77.88;45.75;;;;;;;18.30;71.48;101621.31;4995351;28;20049;-82
2022/10/21 00:03:20;;;;;;;74.75;45.30;;;;;;;18.34;71.37;101633.44;4980215;28;20064;-80
2022/10/21 00:05:48;;;;;;;72.00;45.58;;;;;;;18.21;71.97;101623.13;4980321;28;20532;-80
2022/10/21 00:08:16;;;;;;;62.70;43.20;;;;;;;18.27;72.14;101637.75;4980739;28;20584;-80
2022/10/21 00:10:45;;;;;;;63.63;44.22;;;;;;;18.17;72.21;101654.03;4982664;28;20072;-82
2022/10/21 00:13:14;;;;;;;67.57;43.03;;;;;;;17.92;72.34;101610.06;4979728;28;20508;-82
2022/10/21 00:15:41;;;;;;;69.15;42.95;;;;;;;17.89;72.46;101624.66;4976947;28;20452;-81
2022/10/21 00:18:07;;;;;;;69.95;43.80;;;;;;;17.00;72.68;101478.13;4980792;28;20057;-83
2022/10/21 00:20:34;;;;;;;75.68;43.55;;;;;;;17.71;72.68;101600.50;4991095;28;20076;-81
2022/10/21 00:23:05;;;;;;;62.80;41.20;;;;;;;17.80;73.31;101620.25;4997629;28;20144;-81
2022/10/21 00:25:37;;;;;;;68.18;43.50;;;;;;;17.89;73.60;101639.94;4998625;28;20469;-81
2022/10/21 00:28:06;;;;;;;66.78;42.22;;;;;;;17.65;73.21;101600.34;4982438;28;20412;-83
2022/10/21 00:30:42;;;;;;;62.40;41.58;;;;;;;17.79;72.95;101617.69;4975356;28;20049;-83
2022/10/21 00:33:10;;;;;;;;;;;;;;;17.79;73.12;101639.16;4979595;28;20053;-82
2022/10/21 00:35:48;;;;;;;66.63;41.67;;;;;;;17.38;73.76;101578.00;4979355;28;20298;-82
2022/10/21 00:38:15;;;;;;;64.63;42.33;;;;;;;17.69;73.50;101645.50;4978556;28;20362;-82
2022/10/21 00:40:42;;;;;;;76.13;42.10;;;;;;;17.58;73.94;101636.88;4978382;28;20180;-82
2022/10/21 00:43:10;;;;;;;64.25;42.10;;;;;;;17.55;73.68;101643.38;4978421;28;20160;-83
2022/10/21 00:45:43;;;;;;;60.55;41.63;;;;;;;17.65;74.04;101660.25;4978221;28;20054;-80
2022/10/21 00:48:29;;;;;;;63.22;41.55;;;;;;;17.32;73.87;101610.00;4978931;28;20144;-81
2022/10/21 00:51:11;;;;;;;66.35;43.08;;;;;;;17.36;74.22;101625.63;4980139;28;20458;-82
2022/10/21 00:53:48;;;;;;;58.45;40.72;;;;;;;17.51;73.98;101650.06;4978198;28;20046;-80
2022/10/21 00:56:28;;;;;;;63.08;40.80;;;;;;;17.24;74.36;101614.28;4980782;28;20915;-82
2022/10/21 00:58:58;;;;;;;59.97;39.10;;;;;;;16.92;74.42;101558.53;4980761;28;20053;-82
2022/10/21 01:01:26;;;;;;;66.10;39.35;;;;;;;17.60;74.87;101675.09;4979705;28;20477;-82
2022/10/21 01:03:56;;;;;;;59.85;38.00;;;;;;;17.53;75.54;101661.50;4979635;28;20061;-82
2022/10/21 01:06:24;;;;;;;55.38;36.65;;;;;;;17.08;75.50;101568.53;4995303;28;20050;-82
2022/10/21 01:08:57;;;;;;;58.80;36.28;;;;;;;17.67;75.61;101654.69;4997027;28;20058;-82
2022/10/21 01:11:26;;;;;;;53.55;34.95;;;;;;;17.64;76.07;101652.31;4980398;28;20068;-82
2022/10/21 01:14:18;;;;;;;65.35;39.00;;;;;;;17.79;75.56;101655.28;4976964;28;20046;-82
2022/10/21 01:17:01;;;;;;;54.78;37.75;;;;;;;17.72;75.20;101650.56;4977886;28;20085;-82
2022/10/21 01:19:53;;;;;;;62.85;39.40;;;;;;;17.83;73.82;101645.94;4989635;28;20240;-81
2022/10/21 01:22:51;;;;;;;56.75;38.80;;;;;;;17.72;74.37;101642.50;4987617;28;20050;-82
2022/10/21 01:25:40;;;;;;;;;;;;;;;17.70;73.92;101652.56;4979547;28;20065;-80
2022/10/21 01:28:34;;;;;;;59.00;39.72;;;;;;;17.29;73.55;101587.81;4980073;28;19932;-82
2022/10/21 01:31:15;;;;;;;62.83;39.33;;;;;;;17.75;73.13;101659.31;4979552;28;20045;-83
2022/10/21 01:33:59;;;;;;;60.87;41.23;;;;;;;17.71;72.82;101654.22;4978110;28;20054;-82
2022/10/21 01:36:54;;;;;;;60.97;39.47;;;;;;;17.39;72.89;101600.31;4978820;28;20466;-81
2022/10/21 01:39:32;;;;;;;59.45;39.00;;;;;;;16.98;72.79;101536.44;4956123;28;20054;-81
2022/10/21 01:42:12;;;;;;;65.05;42.10;;;;;;;17.71;72.34;101651.53;4961728;28;20623;-81
2022/10/21 01:44:51;;;;;;;60.47;39.60;;;;;;;17.67;72.60;101652.88;4961874;28;20196;-82
2022/10/21 01:47:33;;;;;;;61.00;39.47;;;;;;;17.61;73.08;101645.44;4976413;28;20136;-83
2022/10/21 01:50:24;;;;;;;61.70;41.88;;;;;;;17.39;72.78;101600.31;4985791;28;20076;-80
2022/10/21 01:52:56;;;;;;;66.30;41.10;;;;;;;17.19;72.52;101579.03;4968724;28;20577;-81
2022/10/21 01:55:31;;;;;;;73.35;42.17;;;;;;;17.59;72.78;101636.69;4978948;28;20447;-81
2022/10/21 01:58:03;;;;;;;75.18;43.65;;;;;;;17.58;72.76;101621.59;4978126;28;20072;-82
2022/10/21 02:00:34;;;;;;;65.25;41.80;;;;;;;17.57;72.38;101637.84;4976084;28;20254;-82
2022/10/21 02:03:09;;;;;;;70.80;43.20;;;;;;;17.66;72.08;101637.75;4960577;28;20518;-83
2022/10/21 02:05:36;;;;;;;69.13;42.85;;;;;;;17.24;72.31;101570.53;4978112;28;20575;-81
2022/10/21 02:08:08;;;;;;;72.22;42.58;;;;;;;17.62;72.71;101628.34;4977157;28;20112;-81
2022/10/21 02:10:40;;;;;;;72.20;41.67;;;;;;;17.61;71.99;101632.00;4980159;28;20337;-83
2022/10/21 02:13:17;;;;;;;68.57;42.33;;;;;;;17.47;72.67;101619.16;4996837;28;20483;-83
2022/10/21 02:15:45;;;;;;;77.93;44.67;;;;;;;17.52;72.57;101627.56;4991813;28;20454;-81
2022/10/21 02:18:22;;;;;;;72.88;44.75;;;;;;;17.47;72.46;101613.78;4976086;28;20129;-82
2022/10/21 02:20:59;;;;;;;70.45;43.20;;;;;;;17.55;72.46;101605.81;4975314;28;20053;-82
2022/10/21 02:23:44;;;;;;;66.57;44.22;;;;;;;17.49;72.45;101614.47;4981601;28;20837;-81
2022/10/21 02:26:11;;;;;;;75.80;46.28;;;;;;;17.52;72.80;101631.13;4978613;28;20462;-83
2022/10/21 02:28:38;;;;;;;83.20;46.65;;;;;;;17.52;72.65;101632.94;4993386;28;20085;-82
2022/10/21 02:31:38;;;;;;;76.75;45.88;;;;;;;17.46;73.14;101620.16;4992268;28;20348;-82
2022/10/21 02:34:30;;;;;;;87.72;51.03;;;;;;;17.43;72.96;101623.16;4992876;28;20132;-82
2022/10/21 02:37:22;;;;;;;90.63;48.92;;;;;;;17.33;73.61;101592.88;4990790;28;20512;-84
2022/10/21 02:40:07;;;;;;;85.13;49.78;;;;;;;17.36;73.38;101598.78;4975815;28;20471;-81
2022/10/21 02:42:42;;;;;;;82.28;50.53;;;;;;;17.03;73.45;101538.66;4976064;28;20108;-83
2022/10/21 02:45:09;;;;;;;96.20;52.97;;;;;;;17.42;73.77;101602.69;4976644;28;20050;-81
2022/10/21 02:47:39;;;;;;;96.18;55.30;;;;;;;17.04;73.60;101532.31;4978095;28;20580;-82
2022/10/21 02:50:06;;;;;;;94.00;54.67;;;;;;;17.43;74.09;101599.84;4978389;28;20658;-81
2022/10/21 02:52:33;;;;;;;93.13;55.85;;;;;;;17.37;73.88;101591.56;4978653;28;20160;-82
2022/10/21 02:55:03;;;;;;;108.13;60.08;;;;;;;17.32;73.74;101588.53;4993964;28;20129;-83
2022/10/21 02:57:29;;;;;;;104.30;57.83;;;;;;;17.44;73.89;101598.00;4992664;28;20113;-81
2022/10/21 02:59:56;;;;;;;98.40;56.83;;;;;;;17.38;73.92;101582.50;4995436;28;20461;-82
2022/10/21 03:02:23;;;;;;;96.13;57.10;;;;;;;17.40;74.14;101591.25;4994209;28;20609;-82
2022/10/21 03:04:49;;;;;;;106.13;58.80;;;;;;;17.44;74.16;101592.63;4977207;28;20236;-82
2022/10/21 03:07:16;;;;;;;116.43;61.67;;;;;;;17.50;74.17;101613.47;4993782;28;20620;-81
2022/10/21 03:09:43;;;;;;;113.47;60.40;;;;;;;17.37;74.38;101596.94;4977358;28;20589;-80
2022/10/21 03:12:12;;;;;;;115.45;63.35;;;;;;;17.27;74.22;101591.66;4961705;28;20695;-82
2022/10/21 03:14:39;;;;;;;121.00;62.72;;;;;;;17.41;73.93;101603.69;4993381;28;20056;-81
2022/10/21 03:17:06;;;;;;;108.72;61.38;;;;;;;17.38;73.80;101607.53;4947496;28;20168;-82
2022/10/21 03:19:33;;;;;;;112.38;64.05;;;;;;;17.41;73.85;101599.16;4979685;28;20092;-83
2022/10/21 03:22:00;;;;;;;106.43;60.47;;;;;;;17.20;74.34;101564.63;4972969;28;20050;-80
2022/10/21 03:24:26;;;;;;;108.78;62.08;;;;;;;17.27;73.98;101576.41;4976357;28;20321;-81
2022/10/21 03:26:55;;;;;;;115.72;65.90;;;;;;;17.30;74.32;101591.34;4962965;28;20061;-80
2022/10/21 03:29:22;;;;;;;119.20;66.95;;;;;;;17.54;74.11;101619.38;4979280;28;20080;-81
2022/10/21 03:31:48;;;;;;;113.57;66.30;;;;;;;16.78;73.77;101498.25;4977936;28;20296;-82
2022/10/21 03:34:15;;;;;;;121.22;63.90;;;;;;;17.61;73.84;101610.53;4978982;28;20056;-81
2022/10/21 03:36:42;;;;;;;120.13;65.03;;;;;;;17.48;74.04;101581.44;4978854;28;20140;-81
2022/10/21 03:39:10;;;;;;;125.88;66.50;;;;;;;17.49;74.14;101583.09;4979407;28;20133;-82
2022/10/21 03:41:40;;;;;;;114.95;65.43;;;;;;;17.59;74.11;101598.25;4978031;28;20140;-80
2022/10/21 03:44:12;;;;;;;123.97;65.15;;;;;;;17.45;73.98;101580.88;4972418;28;20629;-81
2022/10/21 03:46:39;;;;;;;129.48;68.72;;;;;;;17.61;73.99;101599.78;4974831;28;20320;-81
2022/10/21 03:49:06;;;;;;;115.82;66.07;;;;;;;17.64;73.38;101586.03;4975345;28;20050;-81
2022/10/21 03:51:41;;;;;;;116.93;65.80;;;;;;;17.68;73.15;101600.84;4956350;28;20153;-82
2022/10/21 03:54:07;;;;;;;129.68;68.70;;;;;;;17.65;73.99;101601.16;4959339;28;20052;-80
2022/10/21 03:56:34;;;;;;;120.80;67.78;;;;;;;17.44;73.96;101573.84;4981843;28;20224;-80
2022/10/21 03:59:03;;;;;;;119.85;66.60;;;;;;;17.39;74.32;101562.75;4999762;28;20448;-81
2022/10/21 04:01:32;;;;;;;122.00;66.50;;;;;;;17.55;74.07;101594.19;4998986;28;20045;-82
2022/10/21 04:03:59;;;;;;;123.03;67.80;;;;;;;17.58;74.24;101600.13;5002078;28;20498;-80
2022/10/21 04:06:26;;;;;;;121.72;68.07;;;;;;;17.57;73.95;101598.41;5004009;28;20558;-82
2022/10/21 04:08:53;;;;;;;122.93;68.55;;;;;;;17.55;74.40;101605.81;4987229;28;20041;-81
2022/10/21 04:11:20;;;;;;;127.80;64.75;;;;;;;17.51;74.29;101599.06;5001222;28;20508;-80
2022/10/21 04:13:47;;;;;;;127.72;69.70;;;;;;;17.23;73.98;101553.59;4998574;28;20049;-80
2022/10/21 04:16:18;;;;;;;126.65;69.88;;;;;;;17.41;74.39;101576.84;4973169;28;20231;-80
2022/10/21 04:18:45;;;;;;;135.63;73.13;;;;;;;17.52;74.34;101587.31;4983329;28;20049;-81
2022/10/21 04:21:12;;;;;;;132.65;71.32;;;;;;;17.56;74.02;101579.78;4980339;28;20553;-81
2022/10/21 04:23:42;;;;;;;129.90;71.82;;;;;;;17.65;73.97;101592.28;4979746;28;20533;-82
2022/10/21 04:26:16;;;;;;;131.38;71.75;;;;;;;17.33;73.86;101541.88;4980201;28;20057;-81
2022/10/21 04:28:43;;;;;;;136.07;73.80;;;;;;;17.65;74.03;101600.34;4981505;28;20186;-81
2022/10/21 04:31:10;;;;;;;147.40;80.05;;;;;;;17.62;73.84;101590.75;4981073;28;20046;-82
2022/10/21 04:33:39;;;;;;;133.68;72.65;;;;;;;17.43;74.11;101556.06;4979583;28;20054;-81
2022/10/21 04:36:06;;;;;;;147.40;78.10;;;;;;;17.62;74.38;101595.25;4980939;28;20077;-81
2022/10/21 04:38:33;;;;;;;147.75;78.40;;;;;;;17.48;74.03;101572.53;4978944;28;20061;-80
2022/10/21 04:41:02;;;;;;;152.20;81.78;;;;;;;17.53;74.71;101580.94;4960265;28;20727;-81
2022/10/21 04:43:32;;;;;;;155.45;82.05;;;;;;;17.58;74.93;101597.44;4981633;28;20534;-81
2022/10/21 04:46:04;;;;;;;150.02;80.40;;;;;;;17.36;74.70;101552.31;4981104;28;20057;-81
2022/10/21 04:48:35;;;;;;;157.90;81.68;;;;;;;17.44;74.55;101577.38;4978456;28;20042;-81
2022/10/21 04:51:02;;;;;;;146.73;79.97;;;;;;;17.57;74.49;101598.41;4978769;28;20157;-81
2022/10/21 04:53:31;;;;;;;145.18;79.60;;;;;;;17.38;74.32;101566.41;4996258;28;20050;-80
2022/10/21 04:56:01;;;;;;;151.07;80.35;;;;;;;17.36;74.26;101565.75;4993618;28;20481;-82
2022/10/21 04:58:30;;;;;;;143.80;80.28;;;;;;;17.35;74.53;101566.72;4993510;28;20222;-82
2022/10/21 05:00:57;;;;;;;150.35;79.82;;;;;;;17.47;74.74;101577.03;4982314;28;20560;-80
2022/10/21 05:03:24;;;;;;;157.48;78.78;;;;;;;17.59;74.38;101593.72;4984025;28;20417;-82
2022/10/21 05:05:53;;;;;;;147.95;77.85;;;;;;;17.54;74.20;101582.63;4975583;28;20758;-81
2022/10/21 05:08:22;;;;;;;131.70;70.03;;;;;;;17.56;74.01;101577.94;4969868;28;20134;-82
2022/10/21 05:10:48;;;;;;;123.65;66.32;;;;;;;17.64;73.38;101579.84;4979370;28;20575;-83
2022/10/21 05:13:15;;;;;;;115.05;68.15;;;;;;;17.38;73.51;101523.47;4973224;28;20050;-78
2022/10/21 05:15:45;;;;;;;132.68;66.70;;;;;;;17.61;73.72;101575.63;4998061;28;20053;-80
2022/10/21 05:18:11;;;;;;;121.03;66.50;;;;;;;17.58;73.31;101583.16;4996345;28;20046;-81
2022/10/21 05:20:38;;;;;;;123.90;66.15;;;;;;;17.57;73.37;101581.47;4961580;28;20175;-81
2022/10/21 05:23:05;;;;;;;108.38;62.67;;;;;;;17.58;73.70;101573.25;4964962;28;20446;-78
2022/10/21 05:25:31;;;;;;;113.20;64.00;;;;;;;17.56;73.51;101571.75;4962742;28;20081;-81
2022/10/21 05:28:01;;;;;;;117.75;61.70;;;;;;;17.63;73.39;101570.94;4960848;28;20139;-81
2022/10/21 05:30:27;;;;;;;107.97;62.25;;;;;;;17.60;73.49;101573.09;4981003;28;20253;-81
2022/10/21 05:32:54;;;;;;;104.72;61.15;;;;;;;17.58;73.56;101561.69;4995937;28;20531;-81
2022/10/21 05:35:24;;;;;;;101.82;59.17;;;;;;;17.45;73.09;101543.31;4996523;28;20049;-80
2022/10/21 05:37:51;;;;;;;99.93;54.20;;;;;;;17.67;72.69;101582.19;4975789;28;20490;-81
2022/10/21 05:40:19;;;;;;;101.45;55.55;;;;;;;17.68;72.43;101576.66;4991852;28;20269;-80
2022/10/21 05:42:45;;;;;;;102.40;56.92;;;;;;;17.69;72.52;101578.38;4994740;28;20061;-79
2022/10/21 05:45:14;;;;;;;101.85;58.17;;;;;;;17.62;72.96;101573.78;4985194;28;20053;-82
2022/10/21 05:47:42;;;;;;;107.88;59.72;;;;;;;17.52;72.64;101563.16;4962402;28;20108;-80
2022/10/21 05:50:12;;;;;;;97.03;57.67;;;;;;;17.41;72.81;101547.31;4980388;28;20587;-82
2022/10/21 05:52:43;;;;;;;96.63;55.92;;;;;;;16.79;72.41;101448.97;4990431;28;20837;-76
2022/10/21 05:55:10;;;;;;;107.72;56.10;;;;;;;17.57;72.63;101576.94;4971817;28;20559;-81
2022/10/21 05:57:37;;;;;;;94.75;51.72;;;;;;;17.43;72.48;101534.59;4962740;28;20317;-82
2022/10/21 06:00:05;;;;;;;92.15;52.47;;;;;;;17.51;72.13;101534.63;4960993;28;20694;-81
2022/10/21 06:02:33;;;;;;;101.65;55.15;;;;;;;17.64;72.38;101577.97;4982437;28;20058;-81
2022/10/21 06:04:59;;;;;;;100.68;57.88;;;;;;;17.59;73.00;101579.47;4993365;28;20495;-83
2022/10/21 06:07:26;;;;;;;95.40;54.97;;;;;;;17.53;72.84;101580.94;4995058;28;20053;-83
2022/10/21 06:09:53;;;;;;;83.40;50.60;;;;;;;17.45;72.96;101583.56;4979813;28;20591;-83
2022/10/21 06:12:24;;;;;;;92.88;53.67;;;;;;;17.05;72.47;101523.25;4979379;28;20072;-81
2022/10/21 06:14:54;;;;;;;93.03;51.20;;;;;;;17.22;72.25;101551.06;4982191;28;20421;-82
2022/10/21 06:17:21;;;;;;;81.40;48.28;;;;;;;17.21;72.13;101560.06;4960736;28;20058;-84
2022/10/21 06:19:51;;;;;;;82.40;48.45;;;;;;;17.49;72.66;101601.88;4977265;28;20469;-84
2022/10/21 06:22:22;;;;;;;86.45;48.05;;;;;;;17.34;71.99;101575.78;4979368;28;20136;-82
2022/10/21 06:24:49;;;;;;;86.70;48.15;;;;;;;17.34;72.01;101554.31;4968239;28;20354;-81
2022/10/21 06:27:16;;;;;;;90.05;48.47;;;;;;;17.57;71.89;101590.34;4973832;28;21035;-81
2022/10/21 06:29:43;;;;;;;90.90;49.17;;;;;;;16.76;72.01;101462.66;4963769;28;20057;-82
2022/10/21 06:32:12;;;;;;;83.75;48.90;;;;;;;17.46;71.94;101585.28;4976674;28;20052;-82
2022/10/21 06:34:39;;;;;;;90.32;50.78;;;;;;;17.45;72.59;101589.81;4985744;28;20046;-82
2022/10/21 06:37:06;;;;;;;86.57;48.22;;;;;;;17.19;72.13;101548.69;4974209;28;20144;-84
2022/10/21 06:39:33;;;;;;;92.97;49.30;;;;;;;17.25;72.73;101554.25;4963303;28;20102;-83
2022/10/21 06:42:00;;;;;;;84.20;47.35;;;;;;;16.85;71.89;101499.31;4976502;28;20054;-83
2022/10/21 06:44:29;;;;;;;86.60;47.50;;;;;;;16.70;71.74;101470.47;4984419;28;20417;-82
2022/10/21 06:46:55;;;;;;;81.80;47.50;;;;;;;17.39;72.11;101578.84;4979045;28;20472;-80
2022/10/21 06:49:26;;;;;;;87.68;47.97;;;;;;;17.44;72.00;101571.16;4985336;28;20065;-81
2022/10/21 06:51:53;;;;;;;86.18;49.88;;;;;;;17.46;71.80;101561.94;4988052;28;20061;-82
2022/10/21 06:54:20;;;;;;;88.95;47.75;;;;;;;17.68;71.44;101574.00;4965023;28;20049;-80
2022/10/21 06:56:50;;;;;;;87.85;49.92;;;;;;;17.69;71.03;101580.19;4961591;28;20145;-82
2022/10/21 06:59:19;;;;;;;86.80;50.47;;;;;;;17.58;71.87;101567.06;4991938;28;20049;-81
2022/10/21 07:01:52;;;;;;;100.80;53.42;;;;;;;17.66;71.85;101586.72;4985312;28;20552;-82
2022/10/21 07:04:26;;;;;;;89.85;50.60;;;;;;;17.46;71.74;101547.69;4982806;28;20045;-81
2022/10/21 07:06:53;;;;;;;98.50;53.97;;;;;;;17.48;71.64;101549.22;4979310;28;20425;-80
2022/10/21 07:09:25;;;;;;;94.07;53.15;;;;;;;17.90;71.14;101582.53;4995289;28;20062;-82
2022/10/21 07:11:52;;;;;;;96.35;53.30;;;;;;;17.71;71.56;101579.03;5000109;28;20287;-83
2022/10/21 07:14:19;;;;;;;99.28;56.30;;;;;;;17.07;71.70;101486.38;4982349;28;20567;-81
2022/10/21 07:16:47;;;;;;;108.30;57.53;;;;;;;17.58;72.08;101572.44;4985931;28;20054;-82
2022/10/21 07:19:13;;;;;;;95.57;55.63;;;;;;;17.66;72.52;101597.47;4980693;28;20057;-82
2022/10/21 07:21:40;;;;;;;102.05;55.65;;;;;;;17.60;72.22;101579.31;4981654;28;20120;-83
2022/10/21 07:24:09;;;;;;;103.43;58.28;;;;;;;17.74;71.96;101602.03;5000257;28;20811;-82
2022/10/21 07:26:36;;;;;;;112.97;58.00;;;;;;;17.78;71.82;101607.94;4997531;28;20432;-81
2022/10/21 07:29:04;;;;;;;106.32;58.65;;;;;;;17.55;71.67;101545.88;4996154;28;20171;-81
2022/10/21 07:31:34;;;;;;;93.93;55.00;;;;;;;17.83;71.74;101582.31;4964596;28;20575;-82
2022/10/21 07:34:03;;;;;;;101.95;57.72;;;;;;;17.91;71.49;101581.50;4982301;28;20145;-83
2022/10/21 07:36:38;;;;;;;105.82;54.10;;;;;;;17.82;71.69;101559.16;4996904;28;20053;-81
2022/10/21 07:39:12;;;;;;;100.40;55.10;;;;;;;17.91;70.95;101568.94;4958670;28;20544;-82
2022/10/21 07:41:42;;;;;;;102.75;56.30;;;;;;;18.07;71.32;101595.03;4970678;28;20290;-82
2022/10/21 07:44:09;;;;;;;103.80;55.45;;;;;;;18.10;71.43;101592.00;4963548;28;20046;-82
2022/10/21 07:46:38;;;;;;;95.85;54.08;;;;;;;18.02;71.04;101586.59;4979847;28;20159;-80
2022/10/21 07:49:11;;;;;;;105.22;56.45;;;;;;;18.10;70.96;101586.63;4980997;28;20053;-81
2022/10/21 07:51:39;;;;;;;102.80;54.05;;;;;;;17.68;70.85;101514.91;4979704;28;20536;-81
2022/10/21 07:54:07;;;;;;;113.28;56.17;;;;;;;18.22;71.46;101591.72;4981561;28;20051;-81
2022/10/21 07:56:45;;;;;;;104.95;54.03;;;;;;;17.57;71.02;101474.91;4980812;28;20429;-80
2022/10/21 07:59:13;;;;;;;102.53;55.95;;;;;;;18.13;71.08;101562.16;4983446;28;20062;-79
2022/10/21 08:01:46;;;;;;;103.43;57.08;;;;;;;18.32;70.89;101584.38;4984304;28;20518;-82
2022/10/21 08:04:23;;;;;;;114.57;61.22;;;;;;;17.51;71.52;101440.66;4982874;28;20089;-80
2022/10/21 08:06:50;;;;;;;114.20;63.97;;;;;;;18.45;71.05;101591.97;4978725;28;20488;-80
2022/10/21 08:09:17;;;;;;;119.65;61.45;;;;;;;18.08;71.20;101510.75;4980558;28;20208;-79
2022/10/21 08:11:43;;;;;;;131.15;64.97;;;;;;;18.24;71.32;101525.22;4965575;28;20615;-81
2022/10/21 08:14:10;;;;;;;121.63;62.17;;;;;;;18.44;71.39;101548.09;4992660;28;20053;-80
2022/10/21 08:16:38;;;;;;;130.93;66.80;;;;;;;18.45;71.24;101549.81;5000868;28;20470;-79
2022/10/21 08:19:08;;;;;;;138.15;69.28;;;;;;;18.35;71.50;101530.28;4983023;28;20228;-82
2022/10/21 08:21:36;;;;;;;132.32;72.15;;;;;;;18.40;71.38;101552.16;4962357;28;20462;-80
2022/10/21 08:24:03;;;;;;;133.18;70.45;;;;;;;18.57;71.47;101563.78;4974518;28;20060;-80
2022/10/21 08:26:31;;;;;;;137.15;70.85;;;;;;;18.55;71.82;101561.25;4976689;28;20050;-80
2022/10/21 08:28:58;;;;;;;136.45;74.07;;;;;;;18.55;71.61;101538.91;4968967;28;20046;-85
2022/10/21 08:31:32;;;;;;;134.27;70.72;;;;;;;18.58;71.68;101544.75;4985876;28;20054;-82
2022/10/21 08:33:59;;;;;;;141.82;68.97;;;;;;;18.80;71.12;101553.22;4989175;28;20361;-78
2022/10/21 08:36:29;;;;;;;129.70;71.50;;;;;;;18.86;71.01;101551.72;4998584;28;20192;-81
2022/10/21 08:38:57;;;;;;;133.95;67.45;;;;;;;18.87;70.86;101537.25;4963264;28;20132;-82
2022/10/21 08:41:30;;;;;;;129.45;69.28;;;;;;;18.01;70.58;101366.47;4988154;28;20054;-81
2022/10/21 08:44:29;;;;;;;135.07;73.30;;;;;;;18.92;70.44;101524.97;4979856;28;20053;-80
2022/10/21 08:47:04;;;;;;;139.80;70.85;;;;;;;18.91;70.89;101543.97;4947814;28;20140;-81
2022/10/21 08:50:04;;;;;;;140.68;69.93;;;;;;;18.61;71.17;101488.97;4988469;28;20749;-80
2022/10/21 08:52:48;;;;;;;125.80;65.65;;;;;;;18.95;70.96;101524.63;4959536;28;20050;-81
2022/10/21 08:55:20;;;;;;;122.95;61.38;;;;;;;19.02;70.87;101523.97;4982754;28;20077;-81
2022/10/21 08:57:48;;;;;;;123.63;65.20;;;;;;;18.66;70.69;101470.47;4977099;28;20069;-82
2022/10/21 09:00:31;;;;;;;127.97;66.15;;;;;;;18.58;71.14;101464.09;4979404;28;20685;-82
2022/10/21 09:03:36;;;;;;;126.78;64.97;;;;;;;19.04;71.08;101533.56;4962512;28;20141;-81
2022/10/21 09:06:13;;;;;;;124.10;68.22;;;;;;;19.12;70.75;101536.22;4942874;28;20048;-79
2022/10/21 09:08:58;;;;;;;129.10;64.15;;;;;;;18.77;70.80;101483.63;4980230;28;20619;-82
2022/10/21 09:11:41;;;;;;;125.25;66.80;;;;;;;19.17;70.70;101544.63;4965219;28;20228;-81
2022/10/21 09:14:36;;;;;;;132.18;70.35;;;;;;;19.09;71.05;101554.56;4996197;28;20132;-82
2022/10/21 09:17:31;;;;;;;132.13;75.85;;;;;;;19.09;70.74;101557.28;4984022;28;20355;-81
2022/10/21 09:20:04;;;;;;;136.50;73.40;;;;;;;19.11;70.71;101577.63;4981236;28;20524;-82
2022/10/21 09:22:52;;;;;;;130.85;74.38;;;;;;;18.75;70.88;101509.81;4978970;28;20777;-81
2022/10/21 09:25:36;;;;;;;134.40;70.28;;;;;;;19.21;70.66;101561.28;4979616;28;20509;-81
2022/10/21 09:28:14;;;;;;;132.40;73.00;;;;;;;18.98;70.58;101537.78;4982226;28;20049;-80
2022/10/21 09:30:42;;;;;;;132.70;73.20;;;;;;;19.20;70.69;101576.63;4983207;28;20101;-79
2022/10/21 09:33:22;;;;;;;140.00;76.07;;;;;;;19.15;70.97;101578.97;4981290;28;20054;-82
2022/10/21 09:35:57;;;;;;;125.25;71.45;;;;;;;19.00;71.08;101554.59;4979509;28;20046;-81
2022/10/21 09:39:06;;;;;;;135.00;73.40;;;;;;;18.94;70.70;101549.88;4977423;28;20285;-82
2022/10/21 09:41:41;;;;;;;122.80;70.22;;;;;;;19.15;70.96;101572.72;4959782;28;20161;-83
2022/10/21 09:44:20;;;;;;;137.38;73.90;;;;;;;18.99;71.01;101552.91;4982020;28;20060;-82
2022/10/21 09:46:50;;;;;;;128.85;66.95;;;;;;;19.11;71.33;101574.94;4968943;28;20054;-82
2022/10/21 09:49:37;;;;;;;143.13;73.22;;;;;;;19.07;71.20;101578.13;4982454;28;20064;-82
2022/10/21 09:52:30;;;;;;;137.43;72.18;;;;;;;19.06;71.29;101571.91;4999499;28;20458;-82
2022/10/21 09:54:58;;;;;;;152.32;78.75;;;;;;;19.05;71.35;101580.13;4995436;28;20496;-81
2022/10/21 09:57:43;;;;;;;132.13;73.72;;;;;;;18.96;71.36;101566.69;4979056;28;20239;-81
2022/10/21 10:00:10;;;;;;;141.18;74.65;;;;;;;18.85;71.37;101550.88;4979862;28;20048;-80
2022/10/21 10:02:43;;;;;;;148.57;77.53;;;;;;;19.09;71.48;101584.19;4979645;28;20124;-78
2022/10/21 10:05:34;;;;;;;147.75;78.00;;;;;;;19.07;71.45;101586.19;4978227;28;20623;-83
2022/10/21 10:08:21;;;;;;;150.23;80.57;;;;;;;19.03;71.75;101574.94;4980148;28;20054;-81
2022/10/21 10:10:47;;;;;;;146.55;81.78;;;;;;;18.96;72.15;101564.00;4981958;28;20058;-82
2022/10/21 10:13:23;;;;;;;154.32;78.90;;;;;;;18.85;71.11;101537.41;4963255;28;20154;-81
2022/10/21 10:15:53;;;;;;;164.85;81.15;;;;;;;19.14;71.53;101588.03;4963884;28;20486;-80
2022/10/21 10:18:22;;;;;;;158.15;84.80;;;;;;;19.08;71.53;101580.66;4977973;28;20100;-81
2022/10/21 10:21:24;;;;;;;166.07;86.30;;;;;;;19.12;71.10;101589.22;4964585;28;20052;-80
2022/10/21 10:23:55;;;;;;;175.57;92.55;;;;;;;19.07;71.21;101592.41;4919975;28;20697;-80
2022/10/21 10:26:33;;;;;;;165.73;89.45;;;;;;;19.00;71.20;101577.94;4953496;28;20057;-78
2022/10/21 10:29:19;;;;;;;173.18;94.25;;;;;;;18.84;71.46;101537.59;4960353;28;20046;-79
2022/10/21 10:31:53;;;;;;;185.48;97.53;;;;;;;18.94;71.48;101574.09;4978607;28;20212;-80
2022/10/21 10:34:22;;;;;;;180.57;99.95;;;;;;;19.07;71.55;101587.03;4981436;28;20638;-80
2022/10/21 10:37:03;;;;;;;188.38;98.30;;;;;;;18.54;71.24;101505.78;4998002;28;20045;-81
2022/10/21 10:39:37;;;;;;;193.33;104.73;;;;;;;18.86;71.70;101554.41;4984516;28;20575;-81
2022/10/21 10:42:15;;;;;;;200.73;105.13;;;;;;;19.03;71.92;101590.22;4983902;28;20305;-81
2022/10/21 10:44:43;;;;;;;194.23;102.38;;;;;;;18.91;71.99;101560.13;4971555;28;20151;-80
2022/10/21 10:47:21;;;;;;;188.45;105.20;;;;;;;18.96;71.72;101574.75;4980235;28;20057;-81
2022/10/21 10:49:50;;;;;;;185.52;103.43;;;;;;;18.83;71.78;101542.13;4975206;28;20089;-81
2022/10/21 10:52:23;;;;;;;191.52;101.50;;;;;;;19.00;71.64;101556.41;4960028;28;20262;-81
2022/10/21 10:55:17;;;;;;;196.38;103.07;;;;;;;19.03;71.81;101547.16;4960167;28;20795;-81
2022/10/21 10:57:48;;;;;;;197.80;101.65;;;;;;;19.06;71.69;101536.09;4955475;28;20827;-84
2022/10/21 11:00:39;;;;;;;198.45;108.72;;;;;;;18.95;71.27;101507.66;4975623;28;20050;-82
2022/10/21 11:03:13;;;;;;;195.85;104.78;;;;;;;19.16;71.16;101521.44;4976329;28;20176;-80
2022/10/21 11:05:47;;;;;;;198.18;106.32;;;;;;;19.10;70.95;101510.50;4975867;28;20226;-81
2022/10/21 11:08:18;;;;;;;193.07;107.00;;;;;;;19.24;71.14;101509.81;4979502;28;20046;-81
2022/10/21 11:10:58;;;;;;;189.15;99.47;;;;;;;19.05;70.75;101467.13;4983756;28;20947;-82
2022/10/21 11:13:24;;;;;;;192.35;101.93;;;;;;;18.84;71.25;101417.38;4962759;28;20046;-81
2022/10/21 11:15:57;;;;;;;195.95;104.90;;;;;;;19.34;71.13;101513.13;4981272;28;20049;-81
2022/10/21 11:18:42;;;;;;;198.07;107.32;;;;;;;19.06;71.42;101476.88;4961539;28;20089;-81
2022/10/21 11:21:36;;;;;;;204.18;108.78;;;;;;;19.19;71.58;101485.25;4978708;28;20143;-82
2022/10/21 11:24:41;;;;;;;215.00;110.78;;;;;;;19.37;71.75;101520.91;4978900;28;20208;-80
2022/10/21 11:27:22;;;;;;;206.25;111.28;;;;;;;19.32;71.94;101525.97;4979553;28;20144;-82
2022/10/21 11:29:57;;;;;;;205.65;114.65;;;;;;;18.92;71.70;101455.03;4980933;28;20355;-80